Time,TemperatureF,DewpointF,PressureIn,WindDirection,WindDirectionDegrees,WindSpeedMPH,WindSpeedGustMPH,Humidity,HourlyPrecipIn,Conditions,Clouds,dailyrainin,SoftwareType,DateUTC
2013-07-01 00:11:00,69.8,68.6,29.63,West,270,1.7,-999.0,96,-99.99,,,0.00,Acu-Link.com,2013-07-01 04:11:00,
2013-07-01 00:26:00,69.6,68.4,29.62,SW,225,0.0,-999.0,96,-99.99,,,0.04,Acu-Link.com,2013-07-01 04:26:00,
2013-07-01 00:41:00,69.4,68.2,29.64,SW,225,0.0,-999.0,96,-99.99,,,0.06,Acu-Link.com,2013-07-01 04:41:00,
2013-07-01 00:57:00,69.4,68.2,29.64,WSW,247,2.2,-999.0,96,-99.99,,,0.07,Acu-Link.com,2013-07-01 04:57:00,
2013-07-01 01:12:00,69.4,68.2,29.63,SSW,202,1.1,-999.0,96,-99.99,,,0.11,Acu-Link.com,2013-07-01 05:12:00,
2013-07-01 01:27:00,69.4,68.2,29.63,WSW,247,0.0,-999.0,96,-99.99,,,0.18,Acu-Link.com,2013-07-01 05:27:00,
2013-07-01 01:42:00,69.4,68.2,29.61,NE,45,0.0,-999.0,96,-99.99,,,0.20,Acu-Link.com,2013-07-01 05:42:00,
2013-07-01 01:57:00,69.4,68.5,29.63,ESE,112,0.0,-999.0,97,-99.99,,,0.24,Acu-Link.com,2013-07-01 05:57:00,
2013-07-01 02:12:00,69.4,68.5,29.62,East,90,0.0,-999.0,97,-99.99,,,0.29,Acu-Link.com,2013-07-01 06:12:00,
2013-07-01 02:27:00,69.4,68.5,29.59,WSW,247,0.0,-999.0,97,-99.99,,,0.34,Acu-Link.com,2013-07-01 06:27:00,
2013-07-01 02:42:00,69.4,68.5,29.61,NNE,22,1.7,-999.0,97,-99.99,,,0.35,Acu-Link.com,2013-07-01 06:42:00,
2013-07-01 02:57:00,69.3,68.4,29.59,WSW,247,2.7,-999.0,97,-99.99,,,0.35,Acu-Link.com,2013-07-01 06:57:00,
2013-07-01 03:13:00,69.3,68.4,29.57,SW,225,1.1,-999.0,97,-99.99,,,0.37,Acu-Link.com,2013-07-01 07:13:00,
2013-07-01 03:28:00,69.1,68.2,29.57,South,180,1.7,-999.0,97,-99.99,,,0.37,Acu-Link.com,2013-07-01 07:28:00,
2013-07-01 03:43:00,69.1,68.2,29.57,NE,45,0.0,-999.0,97,-99.99,,,0.37,Acu-Link.com,2013-07-01 07:43:00,
2013-07-01 03:58:00,68.9,68.0,29.58,SW,225,0.0,-999.0,97,-99.99,,,0.38,Acu-Link.com,2013-07-01 07:58:00,
2013-07-01 04:13:00,68.9,68.0,29.58,WSW,247,1.7,-999.0,97,-99.99,,,0.39,Acu-Link.com,2013-07-01 08:13:00,
2013-07-01 04:28:00,68.9,68.0,29.60,WSW,247,1.1,-999.0,97,-99.99,,,0.41,Acu-Link.com,2013-07-01 08:28:00,
2013-07-01 04:44:00,68.9,68.0,29.59,East,90,0.0,-999.0,97,-99.99,,,0.45,Acu-Link.com,2013-07-01 08:44:00,
2013-07-01 04:59:00,68.7,67.8,29.59,WSW,247,0.0,-999.0,97,-99.99,,,0.45,Acu-Link.com,2013-07-01 08:59:00,
2013-07-01 05:14:00,68.5,67.6,29.60,ESE,112,0.0,-999.0,97,-99.99,,,0.45,Acu-Link.com,2013-07-01 09:14:00,
2013-07-01 05:29:00,68.7,67.8,29.62,ESE,112,0.0,-999.0,97,-99.99,,,0.45,Acu-Link.com,2013-07-01 09:29:00,
2013-07-01 05:44:00,68.7,67.8,29.60,ESE,112,0.0,-999.0,97,-99.99,,,0.45,Acu-Link.com,2013-07-01 09:44:00,
2013-07-01 05:59:00,68.9,68.0,29.62,WSW,247,0.0,-999.0,97,-99.99,,,0.47,Acu-Link.com,2013-07-01 09:59:00,
2013-07-01 06:14:00,68.9,68.0,29.63,WSW,247,0.0,-999.0,97,-99.99,,,0.48,Acu-Link.com,2013-07-01 10:14:00,
2013-07-01 06:30:00,68.5,67.6,29.63,ENE,67,0.0,-999.0,97,-99.99,,,0.49,Acu-Link.com,2013-07-01 10:30:00,
2013-07-01 06:45:00,68.4,67.5,29.64,SSW,202,0.0,-999.0,97,-99.99,,,0.50,Acu-Link.com,2013-07-01 10:45:00,
2013-07-01 07:00:00,68.4,67.5,29.65,South,180,0.0,-999.0,97,-99.99,,,0.50,Acu-Link.com,2013-07-01 11:00:00,
2013-07-01 07:15:00,68.4,67.5,29.65,South,180,0.0,-999.0,97,-99.99,,,0.50,Acu-Link.com,2013-07-01 11:15:00,
2013-07-01 07:30:00,68.7,67.8,29.65,South,180,0.0,-999.0,97,-99.99,,,0.50,Acu-Link.com,2013-07-01 11:30:00,
2013-07-01 07:45:00,68.9,68.0,29.65,South,180,0.0,-999.0,97,-99.99,,,0.50,Acu-Link.com,2013-07-01 11:45:00,
2013-07-01 08:00:00,68.9,68.0,29.65,South,180,0.0,-999.0,97,-99.99,,,0.50,Acu-Link.com,2013-07-01 12:00:00,
2013-07-01 08:15:00,69.6,68.4,29.65,South,180,0.0,-999.0,96,-99.99,,,0.50,Acu-Link.com,2013-07-01 12:15:00,
2013-07-01 08:30:00,70.2,69.0,29.66,South,180,0.0,-999.0,96,-99.99,,,0.50,Acu-Link.com,2013-07-01 12:30:00,
2013-07-01 08:45:00,70.9,69.7,29.67,SW,225,0.0,-999.0,96,-99.99,,,0.50,Acu-Link.com,2013-07-01 12:45:00,
2013-07-01 09:01:00,71.2,69.7,29.67,SSW,202,0.0,-999.0,95,-99.99,,,0.50,Acu-Link.com,2013-07-01 13:01:00,
2013-07-01 09:16:00,71.4,69.9,29.67,NNE,22,0.0,-999.0,95,-99.99,,,0.50,Acu-Link.com,2013-07-01 13:16:00,
2013-07-01 09:31:00,72.5,70.7,29.67,NW,315,0.0,-999.0,94,-99.99,,,0.50,Acu-Link.com,2013-07-01 13:31:00,
2013-07-01 09:46:00,73.8,71.0,29.68,SW,225,0.0,-999.0,91,-99.99,,,0.50,Acu-Link.com,2013-07-01 13:46:00,
2013-07-01 10:01:00,73.9,71.1,29.67,WSW,247,0.0,-999.0,91,-99.99,,,0.50,Acu-Link.com,2013-07-01 14:01:00,
2013-07-01 10:16:00,75.2,72.1,29.68,SW,225,0.0,-999.0,90,-99.99,,,0.50,Acu-Link.com,2013-07-01 14:16:00,
2013-07-01 10:31:00,75.4,71.9,29.68,East,90,0.0,-999.0,89,-99.99,,,0.50,Acu-Link.com,2013-07-01 14:31:00,
2013-07-01 10:46:00,76.3,72.1,29.68,West,270,0.0,-999.0,87,-99.99,,,0.50,Acu-Link.com,2013-07-01 14:46:00,
2013-07-01 11:01:00,76.3,71.4,29.68,SSE,157,0.0,-999.0,85,-99.99,,,0.50,Acu-Link.com,2013-07-01 15:01:00,
2013-07-01 11:17:00,77.0,72.1,29.68,South,180,0.0,-999.0,85,-99.99,,,0.50,Acu-Link.com,2013-07-01 15:17:00,
2013-07-01 11:32:00,77.9,71.9,29.69,West,270,0.0,-999.0,82,-99.99,,,0.50,Acu-Link.com,2013-07-01 15:32:00,
2013-07-01 11:47:00,79.9,72.8,29.69,WSW,247,1.7,-999.0,79,-99.99,,,0.50,Acu-Link.com,2013-07-01 15:47:00,
2013-07-01 12:02:00,79.3,72.2,29.68,SW,225,0.0,-999.0,79,-99.99,,,0.50,Acu-Link.com,2013-07-01 16:02:00,
2013-07-01 12:17:00,79.9,72.8,29.70,SSW,202,0.0,-999.0,79,-99.99,,,0.50,Acu-Link.com,2013-07-01 16:17:00,
2013-07-01 12:32:00,81.5,72.0,29.69,SW,225,1.1,-999.0,73,-99.99,,,0.50,Acu-Link.com,2013-07-01 16:32:00,
2013-07-01 12:47:00,81.7,72.6,29.69,SSE,157,0.0,-999.0,74,-99.99,,,0.50,Acu-Link.com,2013-07-01 16:47:00,
2013-07-01 13:02:00,80.2,72.3,29.68,West,270,0.0,-999.0,77,-99.99,,,0.50,Acu-Link.com,2013-07-01 17:02:00,
2013-07-01 13:17:00,80.8,73.3,29.68,East,90,0.0,-999.0,78,-99.99,,,0.50,Acu-Link.com,2013-07-01 17:17:00,
2013-07-01 13:33:00,82.2,73.5,29.68,SSE,157,0.0,-999.0,75,-99.99,,,0.50,Acu-Link.com,2013-07-01 17:33:00,
2013-07-01 13:48:00,83.1,72.7,29.68,ESE,112,0.0,-999.0,71,-99.99,,,0.50,Acu-Link.com,2013-07-01 17:48:00,
2013-07-01 14:03:00,82.9,74.1,29.67,SSW,202,0.0,-999.0,75,-99.99,,,0.50,Acu-Link.com,2013-07-01 18:03:00,
2013-07-01 14:18:00,83.7,74.1,29.67,ESE,112,0.0,-999.0,73,-99.99,,,0.50,Acu-Link.com,2013-07-01 18:18:00,
2013-07-01 14:33:00,82.9,72.9,29.66,ENE,67,0.0,-999.0,72,-99.99,,,0.50,Acu-Link.com,2013-07-01 18:33:00,
2013-07-01 14:48:00,82.4,72.9,29.66,SE,135,0.0,-999.0,73,-99.99,,,0.50,Acu-Link.com,2013-07-01 18:48:00,
2013-07-01 15:03:00,81.7,73.4,29.66,SE,135,0.0,-999.0,76,-99.99,,,0.50,Acu-Link.com,2013-07-01 19:03:00,
2013-07-01 15:18:00,81.1,72.8,29.67,SW,225,0.0,-999.0,76,-99.99,,,0.50,Acu-Link.com,2013-07-01 19:18:00,
2013-07-01 15:33:00,80.1,73.4,29.68,SW,225,0.0,-999.0,80,-99.99,,,0.50,Acu-Link.com,2013-07-01 19:33:00,
2013-07-01 15:49:00,80.2,73.5,29.67,SW,225,0.0,-999.0,80,-99.99,,,0.50,Acu-Link.com,2013-07-01 19:49:00,
2013-07-01 16:04:00,79.3,73.7,29.67,SW,225,1.7,-999.0,83,-99.99,,,0.50,Acu-Link.com,2013-07-01 20:04:00,
2013-07-01 16:19:00,78.8,74.2,29.68,SSE,157,0.0,-999.0,86,-99.99,,,0.50,Acu-Link.com,2013-07-01 20:19:00,
2013-07-01 16:34:00,78.1,73.9,29.66,East,90,0.0,-999.0,87,-99.99,,,0.50,Acu-Link.com,2013-07-01 20:34:00,
2013-07-01 16:49:00,78.1,73.6,29.66,WSW,247,2.7,-999.0,86,-99.99,,,0.51,Acu-Link.com,2013-07-01 20:49:00,
2013-07-01 17:04:00,80.2,74.6,29.66,ESE,112,1.1,-999.0,83,-99.99,,,0.51,Acu-Link.com,2013-07-01 21:04:00,
2013-07-01 17:19:00,80.4,73.6,29.65,ESE,112,0.0,-999.0,80,-99.99,,,0.51,Acu-Link.com,2013-07-01 21:19:00,
2013-07-01 17:34:00,80.4,73.6,29.66,SSW,202,1.1,-999.0,80,-99.99,,,0.51,Acu-Link.com,2013-07-01 21:34:00,
2013-07-01 17:49:00,79.3,72.9,29.66,East,90,0.0,-999.0,81,-99.99,,,0.51,Acu-Link.com,2013-07-01 21:49:00,
2013-07-01 18:05:00,79.7,74.1,29.64,South,180,0.0,-999.0,83,-99.99,,,0.51,Acu-Link.com,2013-07-01 22:05:00,
2013-07-01 18:20:00,79.3,72.9,29.64,WSW,247,0.0,-999.0,81,-99.99,,,0.51,Acu-Link.com,2013-07-01 22:20:00,
2013-07-01 18:35:00,78.8,72.5,29.65,SW,225,0.0,-999.0,81,-99.99,,,0.51,Acu-Link.com,2013-07-01 22:35:00,
2013-07-01 18:50:00,79.0,73.4,29.65,SW,225,0.0,-999.0,83,-99.99,,,0.51,Acu-Link.com,2013-07-01 22:50:00,
2013-07-01 19:05:00,78.6,73.3,29.66,SW,225,0.0,-999.0,84,-99.99,,,0.51,Acu-Link.com,2013-07-01 23:05:00,
2013-07-01 19:20:00,78.4,73.5,29.67,SSW,202,0.0,-999.0,85,-99.99,,,0.51,Acu-Link.com,2013-07-01 23:20:00,
2013-07-01 19:35:00,78.1,73.6,29.67,SSW,202,0.0,-999.0,86,-99.99,,,0.51,Acu-Link.com,2013-07-01 23:35:00,
2013-07-01 19:50:00,77.7,73.2,29.68,SSE,157,0.0,-999.0,86,-99.99,,,0.51,Acu-Link.com,2013-07-01 23:50:00,
2013-07-01 20:05:00,77.2,73.0,29.69,SW,225,2.7,-999.0,87,-99.99,,,0.51,Acu-Link.com,2013-07-02 00:05:00,
2013-07-01 20:20:00,76.6,72.4,29.70,East,90,0.0,-999.0,87,-99.99,,,0.51,Acu-Link.com,2013-07-02 00:20:00,
2013-07-01 20:36:00,76.3,72.5,29.71,SSW,202,0.0,-999.0,88,-99.99,,,0.51,Acu-Link.com,2013-07-02 00:36:00,
2013-07-01 20:51:00,75.9,72.4,29.70,SW,225,0.0,-999.0,89,-99.99,,,0.51,Acu-Link.com,2013-07-02 00:51:00,
2013-07-01 21:06:00,75.6,72.1,29.70,SW,225,2.2,-999.0,89,-99.99,,,0.51,Acu-Link.com,2013-07-02 01:06:00,
2013-07-01 21:21:00,75.4,71.9,29.72,SSW,202,0.0,-999.0,89,-99.99,,,0.51,Acu-Link.com,2013-07-02 01:21:00,
2013-07-01 21:36:00,75.0,71.9,29.71,WSW,247,1.7,-999.0,90,-99.99,,,0.51,Acu-Link.com,2013-07-02 01:36:00,
2013-07-01 21:51:00,75.0,71.9,29.73,SSW,202,0.0,-999.0,90,-99.99,,,0.51,Acu-Link.com,2013-07-02 01:51:00,
2013-07-01 22:06:00,74.8,71.7,29.73,SSW,202,0.0,-999.0,90,-99.99,,,0.51,Acu-Link.com,2013-07-02 02:06:00,
2013-07-01 22:21:00,74.8,71.7,29.74,SSW,202,2.2,-999.0,90,-99.99,,,0.51,Acu-Link.com,2013-07-02 02:21:00,
2013-07-01 22:36:00,74.8,71.7,29.74,SW,225,0.0,-999.0,90,-99.99,,,0.51,Acu-Link.com,2013-07-02 02:36:00,
2013-07-01 22:52:00,74.8,71.7,29.73,SW,225,2.2,-999.0,90,-99.99,,,0.51,Acu-Link.com,2013-07-02 02:52:00,
2013-07-01 23:07:00,74.8,71.7,29.74,SW,225,2.2,-999.0,90,-99.99,,,0.51,Acu-Link.com,2013-07-02 03:07:00,
2013-07-01 23:22:00,74.8,71.7,29.75,West,270,2.7,-999.0,90,-99.99,,,0.51,Acu-Link.com,2013-07-02 03:22:00,
2013-07-01 23:37:00,74.7,71.6,29.75,ESE,112,1.7,-999.0,90,-99.99,,,0.51,Acu-Link.com,2013-07-02 03:37:00,
2013-07-01 23:52:00,74.5,71.7,29.76,ENE,67,1.1,-999.0,91,-99.99,,,0.51,Acu-Link.com,2013-07-02 03:52:00,